| time (UTC) | temp F | wind direction | speed MPH | gust MPH | rain 1hr in | rain 24hr in | rain mn in | humidity % | barometer mb |
| 20260507164532 | 51 | 340 | 5.0 | 14.0 | 0.00 | 0.00 | 0.00 | 29 | 1014.0 |
| 20260507163027 | 50 | 350 | 3.0 | 10.0 | 0.00 | 0.00 | 0.00 | 31 | 1014.2 |
| 20260507161524 | 51 | 348 | 5.0 | 10.0 | 0.00 | 0.00 | 0.00 | 31 | 1014.2 |
| 20260507160023 | 50 | 331 | 6.0 | 10.0 | 0.00 | 0.00 | 0.00 | 34 | 1014.3 |
| 20260507154520 | 51 | 306 | 1.0 | 5.0 | 0.00 | 0.00 | 0.00 | 37 | 1014.4 |
| 20260507153013 | 49 | 338 | 0.0 | 8.0 | 0.00 | 0.00 | 0.00 | 37 | 1014.4 |
| 20260507151510 | 48 | 330 | 3.0 | 9.0 | 0.00 | 0.00 | 0.00 | 38 | 1014.6 |
| 20260507150006 | 48 | 252 | 1.0 | 7.0 | 0.00 | 0.00 | 0.00 | 37 | 1014.4 |
| 20260507144501 | 48 | 355 | 2.0 | 4.0 | 0.00 | 0.00 | 0.00 | 41 | 1014.6 |
| 20260507143058 | 47 | 294 | 2.0 | 5.0 | 0.00 | 0.00 | 0.00 | 41 | 1014.6 |
| 20260507141615 | 46 | 337 | 1.0 | 5.0 | 0.00 | 0.00 | 0.00 | 44 | 1014.7 |
| 20260507140049 | 45 | 221 | 1.0 | 5.0 | 0.00 | 0.00 | 0.00 | 45 | 1014.8 |
| 20260507134549 | 44 | 275 | 2.0 | 5.0 | 0.00 | 0.00 | 0.00 | 52 | 1014.7 |
| 20260507133042 | 44 | 296 | 1.0 | 3.0 | 0.00 | 0.00 | 0.00 | 57 | 1014.8 |
| 20260507131541 | 42 | 306 | 1.0 | 4.0 | 0.00 | 0.00 | 0.00 | 59 | 1014.9 |
| 20260507130033 | 41 | 259 | 1.0 | 3.0 | 0.00 | 0.00 | 0.00 | 66 | 1014.9 |
| 20260507124530 | 38 | 258 | 0.0 | 1.0 | 0.00 | 0.00 | 0.00 | 75 | 1015.0 |
| 20260507123029 | 36 | 258 | 0.0 | 2.0 | 0.00 | 0.00 | 0.00 | 78 | 1015.0 |
| 20260507121525 | 35 | 258 | 0.0 | 2.0 | 0.00 | 0.00 | 0.00 | 79 | 1015.0 |
| 20260507120020 | 34 | 258 | 0.0 | 2.0 | 0.00 | 0.00 | 0.00 | 78 | 1015.0 |
| 20260507114516 | 34 | 258 | 0.0 | 2.0 | 0.00 | 0.00 | 0.00 | 77 | 1015.0 |
| 20260507113014 | 33 | 258 | 0.0 | 1.0 | 0.00 | 0.00 | 0.00 | 78 | 1015.0 |
| 20260507111509 | 33 | 258 | 0.0 | 2.0 | 0.00 | 0.00 | 0.00 | 78 | 1015.0 |
| 20260507110005 | 34 | 258 | 0.0 | 2.0 | 0.00 | 0.00 | 0.00 | 79 | 1015.0 |
| 20260507104508 | 33 | 258 | 0.0 | 1.0 | 0.00 | 0.00 | 0.00 | 78 | 1015.0 |
| 20260507103004 | 33 | 258 | 0.0 | 2.0 | 0.00 | 0.00 | 0.00 | 79 | 1015.0 |
| 20260507101501 | 34 | 258 | 0.0 | 0.0 | 0.00 | 0.00 | 0.00 | 77 | 1015.0 |
| 20260507100100 | 34 | 258 | 1.0 | 2.0 | 0.00 | 0.00 | 0.00 | 77 | 1015.0 |
| 20260507094559 | 34 | 258 | 1.0 | 2.0 | 0.00 | 0.00 | 0.00 | 77 | 1015.0 |
| 20260507093100 | 34 | 257 | 1.0 | 3.0 | 0.00 | 0.00 | 0.00 | 75 | 1015.2 |
| 20260507091558 | 35 | 257 | 0.0 | 2.0 | 0.00 | 0.00 | 0.00 | 73 | 1015.2 |
| 20260507090053 | 35 | 257 | 0.0 | 2.0 | 0.00 | 0.00 | 0.00 | 71 | 1015.2 |
| 20260507084551 | 36 | 257 | 0.0 | 2.0 | 0.00 | 0.00 | 0.00 | 70 | 1015.1 |
| 20260507083050 | 36 | 257 | 1.0 | 3.0 | 0.00 | 0.00 | 0.00 | 70 | 1015.1 |
| 20260507081548 | 36 | 264 | 0.0 | 2.0 | 0.00 | 0.00 | 0.00 | 71 | 1015.2 |
| 20260507080046 | 37 | 264 | 0.0 | 3.0 | 0.00 | 0.00 | 0.00 | 70 | 1015.2 |
| 20260507074544 | 37 | 277 | 1.0 | 2.0 | 0.00 | 0.00 | 0.00 | 71 | 1015.3 |
| 20260507073042 | 37 | 277 | 1.0 | 3.0 | 0.00 | 0.00 | 0.00 | 72 | 1015.3 |
| 20260507071540 | 38 | 281 | 0.0 | 2.0 | 0.00 | 0.00 | 0.00 | 71 | 1015.5 |
| 20260507070037 | 38 | 292 | 1.0 | 2.0 | 0.00 | 0.00 | 0.00 | 67 | 1015.6 |
| 20260507064533 | 39 | 294 | 1.0 | 2.0 | 0.00 | 0.00 | 0.00 | 65 | 1015.7 |
| 20260507063035 | 39 | 294 | 1.0 | 2.0 | 0.00 | 0.00 | 0.00 | 63 | 1015.8 |
| 20260507061529 | 39 | 294 | 0.0 | 2.0 | 0.00 | 0.00 | 0.00 | 62 | 1016.0 |
| 20260507060038 | 40 | 294 | 0.0 | 2.0 | 0.00 | 0.00 | 0.00 | 60 | 1016.0 |
| 20260507054533 | 40 | 294 | 0.0 | 2.0 | 0.00 | 0.00 | 0.00 | 61 | 1016.1 |
| 20260507053024 | 40 | 294 | 1.0 | 2.0 | 0.00 | 0.00 | 0.00 | 60 | 1016.2 |
| 20260507051521 | 41 | 295 | 1.0 | 3.0 | 0.00 | 0.00 | 0.00 | 60 | 1016.2 |
| 20260507050019 | 41 | 298 | 0.0 | 3.0 | 0.00 | 0.00 | 0.00 | 59 | 1016.2 |
| 20260507044540 | 41 | 299 | 0.0 | 2.0 | 0.00 | 0.00 | 0.00 | 58 | 1016.4 |
| 20260507043018 | 41 | 299 | 0.0 | 1.0 | 0.00 | 0.00 | 0.00 | 60 | 1016.4 |
| 20260507041517 | 42 | 299 | 0.0 | 1.0 | 0.00 | 0.00 | 0.00 | 56 | 1016.5 |
| 20260507040016 | 41 | 299 | 0.0 | 1.0 | 0.00 | 0.00 | 0.00 | 55 | 1016.6 |
| 20260507034516 | 42 | 299 | 0.0 | 1.0 | 0.00 | 0.00 | 0.00 | 54 | 1016.6 |
| 20260507033016 | 42 | 299 | 0.0 | 1.0 | 0.00 | 0.00 | 0.00 | 54 | 1016.7 |
| 20260507031516 | 42 | 299 | 0.0 | 1.0 | 0.00 | 0.00 | 0.00 | 54 | 1016.8 |
| 20260507030017 | 42 | 299 | 0.0 | 1.0 | 0.00 | 0.00 | 0.00 | 53 | 1016.8 |
| 20260507024514 | 42 | 299 | 0.0 | 1.0 | 0.00 | 0.00 | 0.00 | 53 | 1016.9 |
| 20260507023013 | 41 | 299 | 0.0 | 2.0 | 0.00 | 0.00 | 0.00 | 52 | 1016.9 |
| 20260507021519 | 42 | 299 | 2.0 | 4.0 | 0.00 | 0.00 | 0.00 | 51 | 1016.9 |
| 20260507020013 | 42 | 290 | 1.0 | 4.0 | 0.00 | 0.00 | 0.00 | 51 | 1016.9 |
| 20260507014513 | 43 | 288 | 2.0 | 5.0 | 0.00 | 0.00 | 0.00 | 50 | 1016.8 |
| 20260507013012 | 43 | 270 | 1.0 | 7.0 | 0.00 | 0.00 | 0.00 | 49 | 1016.8 |
| 20260507011511 | 44 | 288 | 2.0 | 8.0 | 0.00 | 0.00 | 0.00 | 47 | 1016.9 |
| 20260507010011 | 45 | 302 | 4.0 | 11.0 | 0.00 | 0.00 | 0.00 | 46 | 1016.9 |
| 20260507004511 | 45 | 269 | 4.0 | 12.0 | 0.00 | 0.00 | 0.00 | 45 | 1017.0 |
| 20260507003017 | 46 | 240 | 3.0 | 15.0 | 0.00 | 0.00 | 0.00 | 44 | 1016.9 |
| 20260507001520 | 46 | 279 | 6.0 | 14.0 | 0.00 | 0.00 | 0.00 | 45 | 1017.1 |
| 20260507000012 | 45 | 254 | 4.0 | 12.0 | 0.00 | 0.00 | 0.00 | 46 | 1017.1 |
| 20260506234509 | 45 | 340 | 6.0 | 14.0 | 0.00 | 0.00 | 0.00 | 45 | 1017.1 |
| 20260506233007 | 45 | 288 | 7.0 | 12.0 | 0.00 | 0.00 | 0.00 | 45 | 1017.2 |
| 20260506231512 | 45 | 298 | 4.0 | 12.0 | 0.00 | 0.00 | 0.00 | 45 | 1017.2 |
| 20260506230006 | 45 | 312 | 4.0 | 15.0 | 0.00 | 0.00 | 0.00 | 46 | 1017.2 |
| 20260506224506 | 45 | 288 | 7.0 | 17.0 | 0.00 | 0.00 | 0.00 | 45 | 1017.2 |
| 20260506223005 | 45 | 307 | 7.0 | 16.0 | 0.00 | 0.00 | 0.00 | 46 | 1017.2 |
| 20260506221604 | 46 | 309 | 4.0 | 14.0 | 0.00 | 0.00 | 0.00 | 46 | 1017.3 |
| 20260506220003 | 45 | 315 | 6.0 | 13.0 | 0.00 | 0.00 | 0.00 | 47 | 1017.3 |
| 20260506214504 | 45 | 244 | 4.0 | 14.0 | 0.00 | 0.00 | 0.00 | 47 | 1017.5 |
| 20260506213004 | 44 | 279 | 9.0 | 18.0 | 0.00 | 0.00 | 0.00 | 47 | 1017.6 |
| 20260506211500 | 45 | 277 | 7.0 | 15.0 | 0.00 | 0.00 | 0.00 | 47 | 1017.6 |
| 20260506204628 | 45 | 238 | 3.0 | 10.0 | 0.00 | 0.00 | 0.00 | 50 | 1018.0 |
| 20260506203057 | 43 | 317 | 7.0 | 13.0 | 0.00 | 0.00 | 0.00 | 50 | 1018.0 |
| 20260506201557 | 44 | 331 | 4.0 | 13.0 | 0.00 | 0.00 | 0.00 | 52 | 1018.1 |
| 20260506200056 | 44 | 273 | 4.0 | 15.0 | 0.00 | 0.00 | 0.00 | 50 | 1018.1 |
| 20260506194604 | 43 | 306 | 6.0 | 10.0 | 0.00 | 0.00 | 0.00 | 51 | 1018.2 |
| 20260506193058 | 42 | 290 | 6.0 | 13.0 | 0.00 | 0.00 | 0.00 | 51 | 1018.2 |
| 20260506191554 | 42 | 276 | 7.0 | 14.0 | 0.00 | 0.00 | 0.00 | 51 | 1018.2 |
| 20260506190053 | 42 | 300 | 10.0 | 16.0 | 0.00 | 0.00 | 0.00 | 51 | 1018.3 |
| 20260506184553 | 43 | 283 | 5.0 | 13.0 | 0.00 | 0.00 | 0.00 | 51 | 1018.2 |
| 20260506183059 | 42 | 321 | 6.0 | 15.0 | 0.00 | 0.00 | 0.00 | 50 | 1018.2 |
| 20260506181551 | 42 | 250 | 7.0 | 13.0 | 0.00 | 0.00 | 0.00 | 50 | 1018.4 |
| 20260506180052 | 42 | 298 | 8.0 | 14.0 | 0.00 | 0.00 | 0.00 | 49 | 1018.2 |
| 20260506174549 | 42 | 277 | 6.0 | 16.0 | 0.00 | 0.00 | 0.00 | 51 | 1018.3 |
| 20260506173050 | 42 | 323 | 7.0 | 14.0 | 0.00 | 0.00 | 0.00 | 50 | 1018.4 |
| 20260506171554 | 42 | 309 | 6.0 | 14.0 | 0.00 | 0.00 | 0.00 | 51 | 1018.4 |
| 20260506170047 | 41 | 312 | 7.0 | 24.0 | 0.00 | 0.00 | 0.00 | 51 | 1018.7 |